createdAt,value
2023-01-18T00:00:08.020Z,925.88
2023-01-18T00:00:19.117Z,925.88
2023-01-18T00:00:30.115Z,925.89
2023-01-18T00:00:40.915Z,925.90
2023-01-18T00:00:52.108Z,925.91
2023-01-18T00:01:02.507Z,925.91
2023-01-18T00:01:13.301Z,925.92
2023-01-18T00:01:24.371Z,925.92
2023-01-18T00:01:35.325Z,925.91
2023-01-18T00:01:46.190Z,925.91
2023-01-18T00:01:56.799Z,925.90
2023-01-18T00:02:07.782Z,925.89
2023-01-18T00:02:18.525Z,925.90
2023-01-18T00:02:29.576Z,925.90
2023-01-18T00:02:40.586Z,925.91
2023-01-18T00:02:51.342Z,925.91
2023-01-18T00:03:02.411Z,925.91
2023-01-18T00:03:13.402Z,925.91
2023-01-18T00:03:24.153Z,925.90
2023-01-18T00:03:35.223Z,925.90
2023-01-18T00:03:46.191Z,925.90
2023-01-18T00:03:56.965Z,925.90
2023-01-18T00:04:08.043Z,925.90
2023-01-18T00:04:19.069Z,925.90
2023-01-18T00:04:29.828Z,925.92
2023-01-18T00:04:40.895Z,925.93
2023-01-18T00:04:51.914Z,925.93
2023-01-18T00:05:02.711Z,925.93
2023-01-18T00:05:13.263Z,925.93
2023-01-18T00:05:24.262Z,925.93
2023-01-18T00:05:35.046Z,925.93
2023-01-18T00:05:46.132Z,925.93
2023-01-18T00:05:57.106Z,925.93
2023-01-18T00:06:07.884Z,925.93
2023-01-18T00:06:18.953Z,925.93
2023-01-18T00:06:29.920Z,925.94
2023-01-18T00:06:40.684Z,925.94
2023-01-18T00:06:51.720Z,925.93
2023-01-18T00:07:02.693Z,925.93
2023-01-18T00:07:13.452Z,925.92
2023-01-18T00:07:24.578Z,925.91
2023-01-18T00:07:35.478Z,925.90
2023-01-18T00:07:46.305Z,925.91
2023-01-18T00:07:56.829Z,925.91
2023-01-18T00:08:07.791Z,925.91
2023-01-18T00:08:18.624Z,925.91
2023-01-18T00:08:29.621Z,925.91
2023-01-18T00:08:40.599Z,925.91
2023-01-18T00:08:51.363Z,925.91
2023-01-18T00:09:02.434Z,925.93
2023-01-18T00:09:13.399Z,925.92
2023-01-18T00:09:24.172Z,925.91
2023-01-18T00:09:35.259Z,925.92
2023-01-18T00:09:46.223Z,925.92
2023-01-18T00:09:56.995Z,925.91
2023-01-18T00:10:08.042Z,925.90
2023-01-18T00:10:19.039Z,925.91
2023-01-18T00:10:29.864Z,925.90
2023-01-18T00:10:40.380Z,925.89
2023-01-18T00:10:51.318Z,925.88
2023-01-18T00:11:02.100Z,925.89
2023-01-18T00:11:13.161Z,925.88
2023-01-18T00:11:24.135Z,925.87
2023-01-18T00:11:34.905Z,925.87
2023-01-18T00:11:45.972Z,925.90
2023-01-18T00:11:56.940Z,925.89
2023-01-18T00:12:07.700Z,925.90
2023-01-18T00:12:18.754Z,925.90
2023-01-18T00:12:29.760Z,925.90
2023-01-18T00:12:40.514Z,925.90
2023-01-18T00:12:51.566Z,925.88
2023-01-18T00:13:02.547Z,925.86
2023-01-18T00:13:13.326Z,925.86
2023-01-18T00:13:24.359Z,925.86
2023-01-18T00:13:35.426Z,925.86
2023-01-18T00:13:46.170Z,925.87
2023-01-18T00:13:57.199Z,925.87
2023-01-18T00:14:08.180Z,925.86
2023-01-18T00:14:18.928Z,925.84
2023-01-18T00:14:29.992Z,925.84
2023-01-18T00:14:40.953Z,925.86
2023-01-18T00:14:51.742Z,925.87
2023-01-18T00:15:02.784Z,925.86
2023-01-18T00:15:13.764Z,925.86
2023-01-18T00:15:24.546Z,925.83
2023-01-18T00:15:35.630Z,925.81
2023-01-18T00:15:46.597Z,925.81
2023-01-18T00:15:57.377Z,925.81
2023-01-18T00:16:08.451Z,925.82
2023-01-18T00:16:19.511Z,925.82
2023-01-18T00:16:30.288Z,925.83
2023-01-18T00:16:41.384Z,925.83
2023-01-18T00:16:52.322Z,925.84
2023-01-18T00:17:03.109Z,925.84
2023-01-18T00:17:14.148Z,925.84
2023-01-18T00:17:25.113Z,925.83
2023-01-18T00:17:35.915Z,925.84
2023-01-18T00:17:46.949Z,925.83
2023-01-18T00:17:57.936Z,925.84
2023-01-18T00:18:08.702Z,925.85
2023-01-18T00:18:19.769Z,925.84
2023-01-18T00:18:30.761Z,925.84
2023-01-18T00:18:41.554Z,925.83
2023-01-18T00:18:52.572Z,925.82
2023-01-18T00:19:03.572Z,925.82
2023-01-18T00:19:14.343Z,925.83
2023-01-18T00:19:25.412Z,925.84
2023-01-18T00:19:36.422Z,925.85
2023-01-18T00:19:47.155Z,925.86
2023-01-18T00:19:58.227Z,925.86
2023-01-18T00:20:09.209Z,925.85
2023-01-18T00:20:19.989Z,925.85
2023-01-18T00:20:31.040Z,925.85
2023-01-18T00:20:42.058Z,925.84
2023-01-18T00:20:52.846Z,925.84
2023-01-18T00:21:03.919Z,925.83
2023-01-18T00:21:14.891Z,925.83
2023-01-18T00:21:25.656Z,925.83
2023-01-18T00:21:36.692Z,925.84
2023-01-18T00:21:47.707Z,925.85
2023-01-18T00:21:58.537Z,925.84
2023-01-18T00:22:09.015Z,925.84
2023-01-18T00:22:19.995Z,925.84
2023-01-18T00:22:30.797Z,925.85
2023-01-18T00:22:41.848Z,925.85
2023-01-18T00:22:52.800Z,925.85
2023-01-18T00:23:03.614Z,925.85
2023-01-18T00:23:14.644Z,925.83
2023-01-18T00:23:25.596Z,925.83
2023-01-18T00:23:36.374Z,925.82
2023-01-18T00:23:47.437Z,925.82
2023-01-18T00:23:58.397Z,925.81
2023-01-18T00:24:09.163Z,925.82
2023-01-18T00:24:20.212Z,925.82
2023-01-18T00:24:31.174Z,925.83
2023-01-18T00:24:41.974Z,925.83
2023-01-18T00:24:53.111Z,925.84
2023-01-18T00:25:04.049Z,925.84
2023-01-18T00:25:14.820Z,925.84
2023-01-18T00:25:25.884Z,925.83
2023-01-18T00:25:36.858Z,925.83
2023-01-18T00:25:47.628Z,925.83
2023-01-18T00:25:58.691Z,925.83
2023-01-18T00:26:09.676Z,925.83
2023-01-18T00:26:20.440Z,925.84
2023-01-18T00:26:31.505Z,925.84
2023-01-18T00:26:42.451Z,925.83
2023-01-18T00:26:53.207Z,925.82
2023-01-18T00:27:04.300Z,925.83
2023-01-18T00:27:15.265Z,925.83
2023-01-18T00:27:26.078Z,925.85
2023-01-18T00:27:37.124Z,925.85
2023-01-18T00:27:48.116Z,925.85
2023-01-18T00:27:58.884Z,925.86
2023-01-18T00:28:09.957Z,925.86
2023-01-18T00:28:20.963Z,925.86
2023-01-18T00:28:31.685Z,925.84
2023-01-18T00:28:42.741Z,925.85
2023-01-18T00:28:53.703Z,925.85
2023-01-18T00:29:04.474Z,925.84
2023-01-18T00:29:15.535Z,925.85
2023-01-18T00:29:26.507Z,925.85
2023-01-18T00:29:37.288Z,925.85
2023-01-18T00:29:48.344Z,925.84
2023-01-18T00:29:59.345Z,925.83
2023-01-18T00:30:10.133Z,925.83
2023-01-18T00:30:21.147Z,925.83
2023-01-18T00:30:32.140Z,925.83
2023-01-18T00:30:42.947Z,925.83
2023-01-18T00:30:53.949Z,925.82
2023-01-18T00:31:04.945Z,925.83
2023-01-18T00:31:15.799Z,925.82
2023-01-18T00:31:26.833Z,925.82
2023-01-18T00:31:37.867Z,925.81
2023-01-18T00:31:48.674Z,925.82
2023-01-18T00:31:59.228Z,925.81
2023-01-18T00:32:10.161Z,925.82
2023-01-18T00:32:20.929Z,925.83
2023-01-18T00:32:32.147Z,925.84
2023-01-18T00:32:42.581Z,925.84
2023-01-18T00:32:53.335Z,925.84
2023-01-18T00:33:04.417Z,925.84
2023-01-18T00:33:15.376Z,925.83
2023-01-18T00:33:26.162Z,925.83
2023-01-18T00:33:37.193Z,925.82
2023-01-18T00:33:48.302Z,925.81
2023-01-18T00:33:59.018Z,925.81
2023-01-18T00:34:10.076Z,925.83
2023-01-18T00:34:21.046Z,925.83
2023-01-18T00:34:31.842Z,925.83
2023-01-18T00:34:42.867Z,925.83
2023-01-18T00:34:53.846Z,925.83
2023-01-18T00:35:04.715Z,925.84
2023-01-18T00:35:15.250Z,925.83
2023-01-18T00:35:26.186Z,925.83
2023-01-18T00:35:36.966Z,925.83
2023-01-18T00:35:47.997Z,925.82
2023-01-18T00:35:59.023Z,925.82
2023-01-18T00:36:09.777Z,925.82
2023-01-18T00:36:20.361Z,925.84
2023-01-18T00:36:31.344Z,925.84
2023-01-18T00:36:42.100Z,925.84
2023-01-18T00:36:53.147Z,925.84
2023-01-18T00:37:04.137Z,925.84
2023-01-18T00:37:14.926Z,925.84
2023-01-18T00:37:25.997Z,925.83
2023-01-18T00:37:37.005Z,925.83
2023-01-18T00:37:47.761Z,925.84
2023-01-18T00:37:58.810Z,925.85
2023-01-18T00:38:09.800Z,925.83
2023-01-18T00:38:20.608Z,925.84
2023-01-18T00:38:31.127Z,925.85
2023-01-18T00:38:42.100Z,925.85
2023-01-18T00:38:52.916Z,925.85
2023-01-18T00:39:03.938Z,925.85
2023-01-18T00:39:14.903Z,925.84
2023-01-18T00:39:25.742Z,925.84
2023-01-18T00:39:36.764Z,925.85
2023-01-18T00:39:47.848Z,925.85
2023-01-18T00:39:58.619Z,925.85
2023-01-18T00:40:09.678Z,925.84
2023-01-18T00:40:20.639Z,925.83
2023-01-18T00:40:31.412Z,925.83
2023-01-18T00:40:42.497Z,925.82
2023-01-18T00:40:53.499Z,925.82
2023-01-18T00:41:04.329Z,925.82
2023-01-18T00:41:14.818Z,925.83
2023-01-18T00:41:25.782Z,925.82
2023-01-18T00:41:36.547Z,925.83
2023-01-18T00:41:47.622Z,925.82
2023-01-18T00:41:58.590Z,925.81
2023-01-18T00:42:09.407Z,925.79
2023-01-18T00:42:20.408Z,925.79
2023-01-18T00:42:31.378Z,925.78
2023-01-18T00:42:42.248Z,925.78
2023-01-18T00:42:52.732Z,925.77
2023-01-18T00:43:03.715Z,925.78
2023-01-18T00:43:14.496Z,925.78
2023-01-18T00:43:25.584Z,925.78
2023-01-18T00:43:36.521Z,925.77
2023-01-18T00:43:47.278Z,925.76
2023-01-18T00:43:58.344Z,925.76
2023-01-18T00:44:09.299Z,925.76
2023-01-18T00:44:20.096Z,925.76
2023-01-18T00:44:31.209Z,925.76
2023-01-18T00:44:42.151Z,925.75
2023-01-18T00:44:52.928Z,925.75
2023-01-18T00:45:03.993Z,925.75
2023-01-18T00:45:14.981Z,925.74
2023-01-18T00:45:25.821Z,925.74
2023-01-18T00:45:36.418Z,925.73
2023-01-18T00:45:47.452Z,925.72
2023-01-18T00:45:58.319Z,925.71
2023-01-18T00:46:08.870Z,925.71
2023-01-18T00:46:19.799Z,925.72
2023-01-18T00:46:30.593Z,925.70
2023-01-18T00:46:41.650Z,925.70
2023-01-18T00:46:52.668Z,925.70
2023-01-18T00:47:03.409Z,925.71
2023-01-18T00:47:14.479Z,925.70
2023-01-18T00:47:25.454Z,925.70
2023-01-18T00:47:36.197Z,925.69
2023-01-18T00:47:47.241Z,925.69
2023-01-18T00:47:58.254Z,925.68
2023-01-18T00:48:09.016Z,925.69
2023-01-18T00:48:20.075Z,925.68
2023-01-18T00:48:31.060Z,925.68
2023-01-18T00:48:41.856Z,925.68
2023-01-18T00:48:52.888Z,925.67
2023-01-18T00:49:03.860Z,925.66
2023-01-18T00:49:14.630Z,925.66
2023-01-18T00:49:25.703Z,925.67
2023-01-18T00:49:36.665Z,925.67
2023-01-18T00:49:47.478Z,925.67
2023-01-18T00:49:58.539Z,925.66
2023-01-18T00:50:09.591Z,925.65
2023-01-18T00:50:20.332Z,925.66
2023-01-18T00:50:31.391Z,925.66
2023-01-18T00:50:42.379Z,925.66
2023-01-18T00:50:53.147Z,925.66
2023-01-18T00:51:04.229Z,925.67
2023-01-18T00:51:15.193Z,925.66
2023-01-18T00:51:26.012Z,925.66
2023-01-18T00:51:37.038Z,925.67
2023-01-18T00:51:48.028Z,925.66
2023-01-18T00:51:58.970Z,925.66
2023-01-18T00:52:09.463Z,925.66
2023-01-18T00:52:20.418Z,925.66
2023-01-18T00:52:31.194Z,925.66
2023-01-18T00:52:42.291Z,925.66
2023-01-18T00:52:53.245Z,925.66
2023-01-18T00:53:04.023Z,925.66
2023-01-18T00:53:15.061Z,925.65
2023-01-18T00:53:26.039Z,925.65
2023-01-18T00:53:36.822Z,925.65
2023-01-18T00:53:47.881Z,925.65
2023-01-18T00:53:58.847Z,925.65
2023-01-18T00:54:09.641Z,925.65
2023-01-18T00:54:20.672Z,925.65
2023-01-18T00:54:31.652Z,925.64
2023-01-18T00:54:42.421Z,925.65
2023-01-18T00:54:53.585Z,925.65
2023-01-18T00:55:04.500Z,925.66
2023-01-18T00:55:15.268Z,925.66
2023-01-18T00:55:26.330Z,925.66
2023-01-18T00:55:37.289Z,925.66
2023-01-18T00:55:48.057Z,925.66
2023-01-18T00:55:59.108Z,925.67
2023-01-18T00:56:10.124Z,925.68
2023-01-18T00:56:20.864Z,925.68
2023-01-18T00:56:31.927Z,925.67
2023-01-18T00:56:42.903Z,925.67
2023-01-18T00:56:53.694Z,925.67
2023-01-18T00:57:04.774Z,925.67
2023-01-18T00:57:15.717Z,925.67
2023-01-18T00:57:26.487Z,925.67
2023-01-18T00:57:37.549Z,925.68
2023-01-18T00:57:48.518Z,925.68
2023-01-18T00:57:59.349Z,925.68
2023-01-18T00:58:10.349Z,925.68
2023-01-18T00:58:21.333Z,925.69
2023-01-18T00:58:32.106Z,925.66
2023-01-18T00:58:43.159Z,925.66
2023-01-18T00:58:54.134Z,925.66
2023-01-18T00:59:04.895Z,925.65
2023-01-18T00:59:15.971Z,925.65
2023-01-18T00:59:26.965Z,925.66
2023-01-18T00:59:37.733Z,925.66
2023-01-18T00:59:48.810Z,925.67
2023-01-18T00:59:59.776Z,925.67
2023-01-18T01:00:10.559Z,925.66
2023-01-18T01:00:21.625Z,925.65
2023-01-18T01:00:32.597Z,925.65
2023-01-18T01:00:43.447Z,925.65
2023-01-18T01:00:54.085Z,925.65
2023-01-18T01:01:04.687Z,925.66
2023-01-18T01:01:15.512Z,925.66
2023-01-18T01:01:26.176Z,925.67
2023-01-18T01:01:36.654Z,925.68
2023-01-18T01:01:47.645Z,925.68
2023-01-18T01:01:58.404Z,925.68
2023-01-18T01:02:09.044Z,925.68
2023-01-18T01:02:19.858Z,925.69
2023-01-18T01:02:30.941Z,925.70
2023-01-18T01:02:42.017Z,925.69
2023-01-18T01:02:52.886Z,925.70
2023-01-18T01:03:03.404Z,925.71
2023-01-18T01:03:14.401Z,925.72
2023-01-18T01:03:25.183Z,925.72
2023-01-18T01:03:35.680Z,925.72
2023-01-18T01:03:46.664Z,925.72
2023-01-18T01:03:57.446Z,925.73
2023-01-18T01:04:08.487Z,925.73
2023-01-18T01:04:19.457Z,925.73
2023-01-18T01:04:30.243Z,925.74
2023-01-18T01:04:41.291Z,925.74
2023-01-18T01:04:52.274Z,925.73
2023-01-18T01:05:03.053Z,925.73
2023-01-18T01:05:14.131Z,925.74
2023-01-18T01:05:25.094Z,925.74
2023-01-18T01:05:35.851Z,925.74
2023-01-18T01:05:46.906Z,925.73
2023-01-18T01:05:57.902Z,925.74
2023-01-18T01:06:08.653Z,925.75
2023-01-18T01:06:19.693Z,925.74
2023-01-18T01:06:30.695Z,925.75
2023-01-18T01:06:41.482Z,925.74
2023-01-18T01:06:52.532Z,925.73
2023-01-18T01:07:03.494Z,925.73
2023-01-18T01:07:14.295Z,925.73
2023-01-18T01:07:25.404Z,925.73
2023-01-18T01:07:36.399Z,925.73
2023-01-18T01:07:47.167Z,925.73
2023-01-18T01:07:58.207Z,925.73
2023-01-18T01:08:09.176Z,925.74
2023-01-18T01:08:19.937Z,925.72
2023-01-18T01:08:30.989Z,925.73
2023-01-18T01:08:41.958Z,925.73
2023-01-18T01:08:52.725Z,925.74
2023-01-18T01:09:03.814Z,925.74
2023-01-18T01:09:14.782Z,925.75
2023-01-18T01:09:25.581Z,925.74
2023-01-18T01:09:36.602Z,925.75
2023-01-18T01:09:47.567Z,925.75
2023-01-18T01:09:58.352Z,925.75
2023-01-18T01:10:09.481Z,925.76
2023-01-18T01:10:20.422Z,925.75
2023-01-18T01:10:31.205Z,925.75
2023-01-18T01:10:42.263Z,925.76
2023-01-18T01:10:53.245Z,925.75
2023-01-18T01:11:03.999Z,925.76
2023-01-18T01:11:15.114Z,925.76
2023-01-18T01:11:26.033Z,925.75
2023-01-18T01:11:36.844Z,925.75
2023-01-18T01:11:47.871Z,925.75
2023-01-18T01:11:58.883Z,925.76
2023-01-18T01:12:09.646Z,925.77
2023-01-18T01:12:20.713Z,925.77
2023-01-18T01:12:31.734Z,925.76
2023-01-18T01:12:42.517Z,925.76
2023-01-18T01:12:53.547Z,925.77
2023-01-18T01:13:04.526Z,925.77
2023-01-18T01:13:15.309Z,925.77
2023-01-18T01:13:26.364Z,925.76
2023-01-18T01:13:37.342Z,925.76
2023-01-18T01:13:48.124Z,925.76
2023-01-18T01:13:59.175Z,925.76
2023-01-18T01:14:10.177Z,925.77
2023-01-18T01:14:20.920Z,925.76
2023-01-18T01:14:31.965Z,925.76
2023-01-18T01:14:42.936Z,925.77
2023-01-18T01:14:53.719Z,925.77
2023-01-18T01:15:04.781Z,925.76
2023-01-18T01:15:15.767Z,925.76
2023-01-18T01:15:26.533Z,925.76
2023-01-18T01:15:37.595Z,925.76
2023-01-18T01:15:48.560Z,925.76
2023-01-18T01:15:59.331Z,925.76
2023-01-18T01:16:10.554Z,925.76
2023-01-18T01:16:20.955Z,925.76
2023-01-18T01:16:31.756Z,925.75
2023-01-18T01:16:42.926Z,925.75
2023-01-18T01:16:53.489Z,925.76
2023-01-18T01:17:04.248Z,925.76
2023-01-18T01:17:15.301Z,925.77
2023-01-18T01:17:26.277Z,925.77
2023-01-18T01:17:37.058Z,925.77
2023-01-18T01:17:48.106Z,925.78
2023-01-18T01:17:59.105Z,925.78
2023-01-18T01:18:09.856Z,925.78
2023-01-18T01:18:20.923Z,925.77
2023-01-18T01:18:31.901Z,925.77
2023-01-18T01:18:42.683Z,925.77
2023-01-18T01:18:53.733Z,925.77
2023-01-18T01:19:04.710Z,925.77
2023-01-18T01:19:15.483Z,925.77
2023-01-18T01:19:26.553Z,925.77
2023-01-18T01:19:37.519Z,925.78
2023-01-18T01:19:48.309Z,925.77
2023-01-18T01:19:59.345Z,925.77
2023-01-18T01:20:10.331Z,925.77
2023-01-18T01:20:21.149Z,925.76
2023-01-18T01:20:32.172Z,925.77
2023-01-18T01:20:43.151Z,925.77
2023-01-18T01:20:53.921Z,925.77
2023-01-18T01:21:04.951Z,925.77
2023-01-18T01:21:15.927Z,925.78
2023-01-18T01:21:26.701Z,925.78
2023-01-18T01:21:37.742Z,925.78
2023-01-18T01:21:48.750Z,925.79
2023-01-18T01:21:59.573Z,925.79
2023-01-18T01:22:10.622Z,925.80
2023-01-18T01:22:21.629Z,925.80
2023-01-18T01:22:32.401Z,925.80
2023-01-18T01:22:43.452Z,925.80
2023-01-18T01:22:54.437Z,925.79
2023-01-18T01:23:05.200Z,925.79
2023-01-18T01:23:16.258Z,925.79
2023-01-18T01:23:27.272Z,925.79
2023-01-18T01:23:38.015Z,925.79
2023-01-18T01:23:49.072Z,925.79
2023-01-18T01:24:00.051Z,925.79
2023-01-18T01:24:10.796Z,925.79
2023-01-18T01:24:21.858Z,925.79
2023-01-18T01:24:32.826Z,925.79
2023-01-18T01:24:43.587Z,925.78
2023-01-18T01:24:54.646Z,925.78
2023-01-18T01:25:05.612Z,925.79
2023-01-18T01:25:16.408Z,925.80
2023-01-18T01:25:27.442Z,925.80
2023-01-18T01:25:38.450Z,925.80
2023-01-18T01:25:49.204Z,925.79
2023-01-18T01:26:00.247Z,925.79
2023-01-18T01:26:11.216Z,925.79
2023-01-18T01:26:21.993Z,925.79
2023-01-18T01:26:33.053Z,925.79
2023-01-18T01:26:44.021Z,925.80
2023-01-18T01:26:54.955Z,925.80
2023-01-18T01:27:05.408Z,925.80
2023-01-18T01:27:16.392Z,925.80
2023-01-18T01:27:27.189Z,925.81
2023-01-18T01:27:38.224Z,925.81
2023-01-18T01:27:49.195Z,925.82
2023-01-18T01:27:59.968Z,925.82
2023-01-18T01:28:11.010Z,925.81
2023-01-18T01:28:21.984Z,925.82
2023-01-18T01:28:32.752Z,925.84
2023-01-18T01:28:43.840Z,925.84
2023-01-18T01:28:54.817Z,925.86
2023-01-18T01:29:05.551Z,925.85
2023-01-18T01:29:16.596Z,925.86
2023-01-18T01:29:27.564Z,925.85
2023-01-18T01:29:38.336Z,925.86
2023-01-18T01:29:49.376Z,925.86
2023-01-18T01:30:00.363Z,925.86
2023-01-18T01:30:11.143Z,925.86
2023-01-18T01:30:22.193Z,925.86
2023-01-18T01:30:33.185Z,925.86
2023-01-18T01:30:44.002Z,925.87
2023-01-18T01:30:55.040Z,925.88
2023-01-18T01:31:06.032Z,925.88
2023-01-18T01:31:16.756Z,925.87
2023-01-18T01:31:27.799Z,925.87
2023-01-18T01:31:38.782Z,925.87
2023-01-18T01:31:49.544Z,925.88
2023-01-18T01:32:00.598Z,925.88
2023-01-18T01:32:11.553Z,925.88
2023-01-18T01:32:22.321Z,925.89
2023-01-18T01:32:33.380Z,925.90
2023-01-18T01:32:44.330Z,925.90
2023-01-18T01:32:55.427Z,925.90
2023-01-18T01:33:06.012Z,925.91
2023-01-18T01:33:16.981Z,925.90
2023-01-18T01:33:27.767Z,925.90
2023-01-18T01:33:38.831Z,925.90
2023-01-18T01:33:49.828Z,925.90
2023-01-18T01:34:00.572Z,925.89
2023-01-18T01:34:11.656Z,925.89
2023-01-18T01:34:22.628Z,925.89
2023-01-18T01:34:33.399Z,925.89
2023-01-18T01:34:44.491Z,925.89
2023-01-18T01:34:55.451Z,925.91
2023-01-18T01:35:06.251Z,925.92
2023-01-18T01:35:17.307Z,925.92
2023-01-18T01:35:28.300Z,925.92
2023-01-18T01:35:39.079Z,925.93
2023-01-18T01:35:50.123Z,925.94
2023-01-18T01:36:01.114Z,925.93
2023-01-18T01:36:11.878Z,925.94
2023-01-18T01:36:22.960Z,925.93
2023-01-18T01:36:33.933Z,925.92
2023-01-18T01:36:44.688Z,925.93
2023-01-18T01:36:55.738Z,925.93
2023-01-18T01:37:06.741Z,925.93
2023-01-18T01:37:17.474Z,925.94
2023-01-18T01:37:28.529Z,925.94
2023-01-18T01:37:39.583Z,925.94
2023-01-18T01:37:50.310Z,925.95
2023-01-18T01:38:01.364Z,925.95
2023-01-18T01:38:12.375Z,925.95
2023-01-18T01:38:23.141Z,925.96
2023-01-18T01:38:34.195Z,925.96
2023-01-18T01:38:45.170Z,925.97
2023-01-18T01:38:55.923Z,925.97
2023-01-18T01:39:06.981Z,925.97
2023-01-18T01:39:17.960Z,925.97
2023-01-18T01:39:28.779Z,925.98
2023-01-18T01:39:39.813Z,925.97
2023-01-18T01:39:50.775Z,925.96
2023-01-18T01:40:01.621Z,925.97
2023-01-18T01:40:12.656Z,925.98
2023-01-18T01:40:23.624Z,925.98
2023-01-18T01:40:34.427Z,925.99
2023-01-18T01:40:44.952Z,926.00
2023-01-18T01:40:55.928Z,926.02
2023-01-18T01:41:06.707Z,926.03
2023-01-18T01:41:17.769Z,926.05
2023-01-18T01:41:28.726Z,926.06
2023-01-18T01:41:39.565Z,926.08
2023-01-18T01:41:50.047Z,926.08
2023-01-18T01:42:01.041Z,926.07
2023-01-18T01:42:11.796Z,926.06
2023-01-18T01:42:22.856Z,926.04
2023-01-18T01:42:33.931Z,926.03
2023-01-18T01:42:44.674Z,926.02
2023-01-18T01:42:56.101Z,926.00
2023-01-18T01:43:06.652Z,925.98
2023-01-18T01:43:17.428Z,925.98
2023-01-18T01:43:28.482Z,925.97
2023-01-18T01:43:39.455Z,925.99
2023-01-18T01:43:50.226Z,925.99
2023-01-18T01:44:01.254Z,925.99
2023-01-18T01:44:12.228Z,925.99
2023-01-18T01:44:22.993Z,926.00
2023-01-18T01:44:34.117Z,926.00
2023-01-18T01:44:45.174Z,926.00
2023-01-18T01:44:55.872Z,925.99
2023-01-18T01:45:06.945Z,926.00
2023-01-18T01:45:17.922Z,926.01
2023-01-18T01:45:28.717Z,926.02
2023-01-18T01:45:39.825Z,926.03
2023-01-18T01:45:50.794Z,926.02
2023-01-18T01:46:01.645Z,926.03
2023-01-18T01:46:12.249Z,926.04
2023-01-18T01:46:23.204Z,926.05
2023-01-18T01:46:34.019Z,926.05
2023-01-18T01:46:45.026Z,926.06
2023-01-18T01:46:55.994Z,926.07
2023-01-18T01:47:06.762Z,926.07
2023-01-18T01:47:17.848Z,926.06
2023-01-18T01:47:28.864Z,926.06
2023-01-18T01:47:39.598Z,926.06
2023-01-18T01:47:50.686Z,926.06
2023-01-18T01:48:01.624Z,926.05
2023-01-18T01:48:12.406Z,926.07
2023-01-18T01:48:23.459Z,926.08
2023-01-18T01:48:34.458Z,926.09
2023-01-18T01:48:45.211Z,926.10
2023-01-18T01:48:56.254Z,926.09
2023-01-18T01:49:07.240Z,926.09
2023-01-18T01:49:18.051Z,926.10
2023-01-18T01:49:29.053Z,926.10
2023-01-18T01:49:40.062Z,926.09
2023-01-18T01:49:50.812Z,926.10
2023-01-18T01:50:01.862Z,926.10
2023-01-18T01:50:12.830Z,926.09
2023-01-18T01:50:23.612Z,926.09
2023-01-18T01:50:34.689Z,926.09
2023-01-18T01:50:45.641Z,926.08
2023-01-18T01:50:56.434Z,926.07
2023-01-18T01:51:07.588Z,926.07
2023-01-18T01:51:18.496Z,926.06
2023-01-18T01:51:29.286Z,926.07
2023-01-18T01:51:40.308Z,926.07
2023-01-18T01:51:51.319Z,926.07
2023-01-18T01:52:02.074Z,926.06
2023-01-18T01:52:13.140Z,926.07
2023-01-18T01:52:24.125Z,926.07
2023-01-18T01:52:34.889Z,926.07
2023-01-18T01:52:45.954Z,926.08
2023-01-18T01:52:57.317Z,926.08
2023-01-18T01:53:07.628Z,926.07
2023-01-18T01:53:18.669Z,926.06
2023-01-18T01:53:29.640Z,926.06
2023-01-18T01:53:40.533Z,926.06
2023-01-18T01:53:51.046Z,926.05
2023-01-18T01:54:01.981Z,926.06
2023-01-18T01:54:12.778Z,926.06
2023-01-18T01:54:23.826Z,926.07
2023-01-18T01:54:34.794Z,926.08
2023-01-18T01:54:45.659Z,926.06
2023-01-18T01:54:56.699Z,926.06
2023-01-18T01:55:07.673Z,926.06
2023-01-18T01:55:18.465Z,926.05
2023-01-18T01:55:29.573Z,926.04
2023-01-18T01:55:40.533Z,926.05
2023-01-18T01:55:51.291Z,926.05
2023-01-18T01:56:02.374Z,926.05
2023-01-18T01:56:13.362Z,926.06
2023-01-18T01:56:24.140Z,926.07
2023-01-18T01:56:35.218Z,926.08
2023-01-18T01:56:46.167Z,926.09
2023-01-18T01:56:56.970Z,926.10
2023-01-18T01:57:07.481Z,926.09
2023-01-18T01:57:18.461Z,926.09
2023-01-18T01:57:29.273Z,926.09
2023-01-18T01:57:39.797Z,926.10
2023-01-18T01:57:50.789Z,926.10
2023-01-18T01:58:01.595Z,926.11
2023-01-18T01:58:12.626Z,926.11
2023-01-18T01:58:23.607Z,926.11
2023-01-18T01:58:34.377Z,926.11
2023-01-18T01:58:45.463Z,926.11
2023-01-18T01:58:56.416Z,926.11
2023-01-18T01:59:07.212Z,926.11
2023-01-18T01:59:18.308Z,926.12
2023-01-18T01:59:29.262Z,926.11
2023-01-18T01:59:40.057Z,926.12
2023-01-18T01:59:51.095Z,926.12
2023-01-18T02:00:02.060Z,926.12
2023-01-18T02:00:12.827Z,926.12
2023-01-18T02:00:23.945Z,926.13
2023-01-18T02:00:34.927Z,926.13
2023-01-18T02:00:45.721Z,926.14
2023-01-18T02:00:56.875Z,926.14
2023-01-18T02:01:07.448Z,926.16
2023-01-18T02:01:18.307Z,926.17
2023-01-18T02:01:28.969Z,926.17
2023-01-18T02:01:39.536Z,926.16
2023-01-18T02:01:50.400Z,926.16
2023-01-18T02:02:01.146Z,926.16
2023-01-18T02:02:11.784Z,926.17
2023-01-18T02:02:22.689Z,926.17
2023-01-18T02:02:33.767Z,926.17
2023-01-18T02:02:44.763Z,926.16
2023-01-18T02:02:55.910Z,926.17
2023-01-18T02:03:06.448Z,926.18
2023-01-18T02:03:17.424Z,926.18
2023-01-18T02:03:28.210Z,926.18
2023-01-18T02:03:39.250Z,926.20
2023-01-18T02:03:50.220Z,926.21
2023-01-18T02:04:01.005Z,926.20
2023-01-18T02:04:12.045Z,926.20
2023-01-18T02:04:22.998Z,926.21
2023-01-18T02:04:33.784Z,926.21
2023-01-18T02:04:44.830Z,926.21
2023-01-18T02:04:55.789Z,926.20
2023-01-18T02:05:06.583Z,926.21
2023-01-18T02:05:17.679Z,926.21
2023-01-18T02:05:28.662Z,926.23
2023-01-18T02:05:39.450Z,926.24
2023-01-18T02:05:50.510Z,926.26
2023-01-18T02:06:01.514Z,926.26
2023-01-18T02:06:12.253Z,926.27
2023-01-18T02:06:23.297Z,926.28
2023-01-18T02:06:34.263Z,926.28
2023-01-18T02:06:45.045Z,926.28
2023-01-18T02:06:56.086Z,926.28
2023-01-18T02:07:07.064Z,926.29
2023-01-18T02:07:17.866Z,926.30
2023-01-18T02:07:28.900Z,926.29
2023-01-18T02:07:39.872Z,926.28
2023-01-18T02:07:50.653Z,926.28
2023-01-18T02:08:01.173Z,926.27
2023-01-18T02:08:12.168Z,926.26
2023-01-18T02:08:23.034Z,926.26
2023-01-18T02:08:33.504Z,926.26
2023-01-18T02:08:44.457Z,926.28
2023-01-18T02:08:55.240Z,926.28
2023-01-18T02:09:06.301Z,926.29
2023-01-18T02:09:17.270Z,926.31
2023-01-18T02:09:28.060Z,926.32
2023-01-18T02:09:39.100Z,926.32
2023-01-18T02:09:50.098Z,926.32
2023-01-18T02:10:00.863Z,926.31
2023-01-18T02:10:11.905Z,926.31
2023-01-18T02:10:22.878Z,926.31
2023-01-18T02:10:33.641Z,926.30
2023-01-18T02:10:44.730Z,926.31
2023-01-18T02:10:55.741Z,926.31
2023-01-18T02:11:06.519Z,926.31
2023-01-18T02:11:17.565Z,926.32
2023-01-18T02:11:28.521Z,926.32
2023-01-18T02:11:39.294Z,926.33
2023-01-18T02:11:50.331Z,926.33
2023-01-18T02:12:01.297Z,926.34
2023-01-18T02:12:12.269Z,926.33
2023-01-18T02:12:22.835Z,926.33
2023-01-18T02:12:33.754Z,926.32
2023-01-18T02:12:44.539Z,926.33
2023-01-18T02:12:55.876Z,926.32
2023-01-18T02:13:06.439Z,926.33
2023-01-18T02:13:17.248Z,926.33
2023-01-18T02:13:28.282Z,926.33
2023-01-18T02:13:39.254Z,926.32
2023-01-18T02:13:50.069Z,926.32
2023-01-18T02:14:01.093Z,926.34
2023-01-18T02:14:12.094Z,926.34
2023-01-18T02:14:22.855Z,926.35
2023-01-18T02:14:33.902Z,926.36
2023-01-18T02:14:44.913Z,926.37
2023-01-18T02:14:55.673Z,926.38
2023-01-18T02:15:06.200Z,926.37
2023-01-18T02:15:19.837Z,926.37
2023-01-18T02:15:27.864Z,926.37
2023-01-18T02:15:38.359Z,926.37
2023-01-18T02:15:49.349Z,926.36
2023-01-18T02:16:00.157Z,926.37
2023-01-18T02:16:11.166Z,926.37